sensor_id;sensor_type;location;lat;lon;timestamp;pressure;altitude;pressure_sealevel;temperature;humidity
49044;BME280;34860;48.066;14.124;2023-05-03T00:00:28;97273.81;;;12.09;58.78
49044;BME280;34860;48.066;14.124;2023-05-03T00:03:16;97262.00;;;12.05;58.76
49044;BME280;34860;48.066;14.124;2023-05-03T00:06:09;97264.00;;;12.05;58.64
49044;BME280;34860;48.066;14.124;2023-05-03T00:09:00;97262.09;;;12.02;58.74
49044;BME280;34860;48.066;14.124;2023-05-03T00:11:49;97261.28;;;12.01;58.83
49044;BME280;34860;48.066;14.124;2023-05-03T00:14:39;97262.50;;;12.00;58.76
49044;BME280;34860;48.066;14.124;2023-05-03T00:17:28;97251.81;;;11.98;58.85
49044;BME280;34860;48.066;14.124;2023-05-03T00:20:17;97249.44;;;11.97;58.68
49044;BME280;34860;48.066;14.124;2023-05-03T00:23:06;97251.84;;;11.95;58.92
49044;BME280;34860;48.066;14.124;2023-05-03T00:25:55;97246.72;;;11.93;58.82
49044;BME280;34860;48.066;14.124;2023-05-03T00:28:45;97238.81;;;11.92;58.69
49044;BME280;34860;48.066;14.124;2023-05-03T00:31:33;97250.38;;;11.90;58.71
49044;BME280;34860;48.066;14.124;2023-05-03T00:34:24;97250.78;;;11.89;58.86
49044;BME280;34860;48.066;14.124;2023-05-03T00:37:12;97244.84;;;11.87;58.89
49044;BME280;34860;48.066;14.124;2023-05-03T00:40:02;97249.22;;;11.88;58.81
49044;BME280;34860;48.066;14.124;2023-05-03T00:42:51;97245.28;;;11.85;58.92
49044;BME280;34860;48.066;14.124;2023-05-03T00:45:48;97238.16;;;11.84;58.76
49044;BME280;34860;48.066;14.124;2023-05-03T00:48:36;97237.34;;;11.84;58.90
49044;BME280;34860;48.066;14.124;2023-05-03T00:51:26;97244.94;;;11.83;58.82
49044;BME280;34860;48.066;14.124;2023-05-03T00:54:15;97239.78;;;11.81;58.88
49044;BME280;34860;48.066;14.124;2023-05-03T00:57:05;97239.78;;;11.81;58.84
49044;BME280;34860;48.066;14.124;2023-05-03T00:59:55;97237.00;;;11.81;59.04
49044;BME280;34860;48.066;14.124;2023-05-03T01:02:46;97231.88;;;11.80;58.96
49044;BME280;34860;48.066;14.124;2023-05-03T01:05:41;97241.81;;;11.81;58.94
49044;BME280;34860;48.066;14.124;2023-05-03T01:08:36;97245.78;;;11.80;59.07
49044;BME280;34860;48.066;14.124;2023-05-03T01:11:27;97239.03;;;11.81;59.02
49044;BME280;34860;48.066;14.124;2023-05-03T01:14:21;97233.44;;;11.81;59.02
49044;BME280;34860;48.066;14.124;2023-05-03T01:17:14;97242.25;;;11.79;59.01
49044;BME280;34860;48.066;14.124;2023-05-03T01:20:06;97233.06;;;11.79;59.05
49044;BME280;34860;48.066;14.124;2023-05-03T01:23:03;97237.88;;;11.78;59.07
49044;BME280;34860;48.066;14.124;2023-05-03T01:26:13;97237.88;;;11.78;59.02
49044;BME280;34860;48.066;14.124;2023-05-03T01:29:02;97237.09;;;11.78;59.06
49044;BME280;34860;48.066;14.124;2023-05-03T01:31:58;97237.88;;;11.78;59.05
49044;BME280;34860;48.066;14.124;2023-05-03T01:34:50;97238.66;;;11.79;59.04
49044;BME280;34860;48.066;14.124;2023-05-03T01:37:42;97233.06;;;11.79;59.10
49044;BME280;34860;48.066;14.124;2023-05-03T01:40:38;97232.31;;;11.78;59.11
49044;BME280;34860;48.066;14.124;2023-05-03T01:43:29;97232.72;;;11.77;59.05
49044;BME280;34860;48.066;14.124;2023-05-03T01:46:19;97233.50;;;11.77;59.14
49044;BME280;34860;48.066;14.124;2023-05-03T01:49:07;97239.88;;;11.78;59.01
49044;BME280;34860;48.066;14.124;2023-05-03T01:51:55;97241.09;;;11.77;59.09
49044;BME280;34860;48.066;14.124;2023-05-03T01:54:43;97243.09;;;11.76;58.99
49044;BME280;34860;48.066;14.124;2023-05-03T01:57:32;97236.75;;;11.76;59.13
49044;BME280;34860;48.066;14.124;2023-05-03T02:00:23;97237.53;;;11.76;59.14
49044;BME280;34860;48.066;14.124;2023-05-03T02:03:16;97241.50;;;11.75;59.06
49044;BME280;34860;48.066;14.124;2023-05-03T02:06:06;97231.63;;;11.74;59.20
49044;BME280;34860;48.066;14.124;2023-05-03T02:08:58;97236.38;;;11.74;59.16
49044;BME280;34860;48.066;14.124;2023-05-03T02:11:47;97234.41;;;11.74;59.13
49044;BME280;34860;48.066;14.124;2023-05-03T02:14:36;97235.94;;;11.75;59.30
49044;BME280;34860;48.066;14.124;2023-05-03T02:17:26;97229.59;;;11.75;59.30
49044;BME280;34860;48.066;14.124;2023-05-03T02:20:14;97232.38;;;11.75;59.27
49044;BME280;34860;48.066;14.124;2023-05-03T02:23:02;97234.75;;;11.76;59.33
49044;BME280;34860;48.066;14.124;2023-05-03T02:25:51;97234.75;;;11.76;59.19
49044;BME280;34860;48.066;14.124;2023-05-03T02:28:42;97236.28;;;11.77;59.33
49044;BME280;34860;48.066;14.124;2023-05-03T02:31:30;97241.09;;;11.77;59.03
49044;BME280;34860;48.066;14.124;2023-05-03T02:34:22;97233.50;;;11.77;59.36
49044;BME280;34860;48.066;14.124;2023-05-03T02:37:11;97241.09;;;11.77;59.22
49044;BME280;34860;48.066;14.124;2023-05-03T02:39:59;97258.56;;;11.77;59.16
49044;BME280;34860;48.066;14.124;2023-05-03T02:42:47;97241.88;;;11.77;59.25
49044;BME280;34860;48.066;14.124;2023-05-03T02:45:42;97251.44;;;11.76;59.21
49044;BME280;34860;48.066;14.124;2023-05-03T02:48:31;97237.53;;;11.76;59.25
49044;BME280;34860;48.066;14.124;2023-05-03T02:51:23;97241.94;;;11.74;59.51
49044;BME280;34860;48.066;14.124;2023-05-03T02:54:16;97245.16;;;11.72;59.26
49044;BME280;34860;48.066;14.124;2023-05-03T02:57:04;97237.25;;;11.71;59.24
49044;BME280;34860;48.066;14.124;2023-05-03T02:59:56;97242.03;;;11.70;59.18
49044;BME280;34860;48.066;14.124;2023-05-03T03:02:46;97244.47;;;11.68;59.28
49044;BME280;34860;48.066;14.124;2023-05-03T03:05:39;97240.53;;;11.66;59.22
49044;BME280;34860;48.066;14.124;2023-05-03T03:08:28;97241.41;;;11.62;59.32
49044;BME280;34860;48.066;14.124;2023-05-03T03:11:19;97242.59;;;11.61;59.24
49044;BME280;34860;48.066;14.124;2023-05-03T03:14:11;97237.91;;;11.58;59.28
49044;BME280;34860;48.066;14.124;2023-05-03T03:17:00;97237.53;;;11.56;59.23
49044;BME280;34860;48.066;14.124;2023-05-03T03:19:50;97238.41;;;11.53;59.32
49044;BME280;34860;48.066;14.124;2023-05-03T03:22:38;97240.41;;;11.53;59.49
49044;BME280;34860;48.066;14.124;2023-05-03T03:25:28;97243.63;;;11.51;59.44
49044;BME280;34860;48.066;14.124;2023-05-03T03:28:17;97236.47;;;11.50;59.39
49044;BME280;34860;48.066;14.124;2023-05-03T03:31:10;97238.91;;;11.48;59.38
49044;BME280;34860;48.066;14.124;2023-05-03T03:33:59;97240.91;;;11.48;59.47
49044;BME280;34860;48.066;14.124;2023-05-03T03:36:49;97239.34;;;11.47;59.40
49044;BME280;34860;48.066;14.124;2023-05-03T03:39:39;97243.34;;;11.45;59.46
49044;BME280;34860;48.066;14.124;2023-05-03T03:42:33;97250.47;;;11.47;59.37
49044;BME280;34860;48.066;14.124;2023-05-03T03:45:23;97244.47;;;11.48;59.56
49044;BME280;34860;48.066;14.124;2023-05-03T03:48:12;97247.69;;;11.47;59.50
49044;BME280;34860;48.066;14.124;2023-05-03T03:51:00;97248.91;;;11.45;59.48
49044;BME280;34860;48.066;14.124;2023-05-03T03:53:55;97248.47;;;11.47;59.50
49044;BME280;34860;48.066;14.124;2023-05-03T03:56:48;97253.25;;;11.47;59.65
49044;BME280;34860;48.066;14.124;2023-05-03T03:59:39;97249.69;;;11.46;59.56
49044;BME280;34860;48.066;14.124;2023-05-03T04:02:30;97262.38;;;11.47;59.51
49044;BME280;34860;48.066;14.124;2023-05-03T04:05:19;97261.94;;;11.49;59.63
49044;BME280;34860;48.066;14.124;2023-05-03T04:08:13;97260.31;;;11.51;59.62
49044;BME280;34860;48.066;14.124;2023-05-03T04:11:03;97257.97;;;11.50;59.59
49044;BME280;34860;48.066;14.124;2023-05-03T04:13:54;97262.31;;;11.51;59.78
49044;BME280;34860;48.066;14.124;2023-05-03T04:16:46;97259.53;;;11.51;59.67
49044;BME280;34860;48.066;14.124;2023-05-03T04:19:35;97261.09;;;11.52;59.67
49044;BME280;34860;48.066;14.124;2023-05-03T04:22:25;97271.81;;;11.53;59.80
49044;BME280;34860;48.066;14.124;2023-05-03T04:25:13;97268.25;;;11.53;59.68
49044;BME280;34860;48.066;14.124;2023-05-03T04:28:07;97274.59;;;11.53;59.69
49044;BME280;34860;48.066;14.124;2023-05-03T04:30:59;97281.72;;;11.54;59.69
49044;BME280;34860;48.066;14.124;2023-05-03T04:33:50;97284.50;;;11.54;59.77
49044;BME280;34860;48.066;14.124;2023-05-03T04:36:41;97282.94;;;11.53;59.65
49044;BME280;34860;48.066;14.124;2023-05-03T04:39:32;97286.53;;;11.54;59.74
49044;BME280;34860;48.066;14.124;2023-05-03T04:42:20;97291.66;;;11.55;59.69
49044;BME280;34860;48.066;14.124;2023-05-03T04:45:12;97285.72;;;11.53;59.75
49044;BME280;34860;48.066;14.124;2023-05-03T04:48:03;97286.53;;;11.54;59.76
49044;BME280;34860;48.066;14.124;2023-05-03T04:50:56;97288.06;;;11.55;59.79
49044;BME280;34860;48.066;14.124;2023-05-03T04:53:45;97292.09;;;11.54;59.74
49044;BME280;34860;48.066;14.124;2023-05-03T04:56:39;97298.78;;;11.56;59.83
49044;BME280;34860;48.066;14.124;2023-05-03T04:59:35;97305.59;;;11.55;59.66
49044;BME280;34860;48.066;14.124;2023-05-03T05:02:23;97307.13;;;11.56;59.85
49044;BME280;34860;48.066;14.124;2023-05-03T05:05:12;97310.72;;;11.57;59.74
49044;BME280;34860;48.066;14.124;2023-05-03T05:08:04;97306.34;;;11.56;59.86
49044;BME280;34860;48.066;14.124;2023-05-03T05:11:00;97310.34;;;11.55;59.75
49044;BME280;34860;48.066;14.124;2023-05-03T05:13:51;97313.13;;;11.55;59.71
49044;BME280;34860;48.066;14.124;2023-05-03T05:16:42;97321.06;;;11.56;59.87
49044;BME280;34860;48.066;14.124;2023-05-03T05:19:33;97324.22;;;11.58;59.82
49044;BME280;34860;48.066;14.124;2023-05-03T05:22:25;97320.19;;;11.59;59.78
49044;BME280;34860;48.066;14.124;2023-05-03T05:25:19;97323.41;;;11.58;59.84
49044;BME280;34860;48.066;14.124;2023-05-03T05:28:08;97321.00;;;11.60;59.76
49044;BME280;34860;48.066;14.124;2023-05-03T05:30:59;97320.53;;;11.61;59.80
49044;BME280;34860;48.066;14.124;2023-05-03T05:33:49;97330.06;;;11.64;59.90
49044;BME280;34860;48.066;14.124;2023-05-03T05:36:40;97330.06;;;11.64;59.97
49044;BME280;34860;48.066;14.124;2023-05-03T05:39:30;97332.84;;;11.64;59.87
49044;BME280;34860;48.066;14.124;2023-05-03T05:42:20;97333.63;;;11.64;59.97
49044;BME280;34860;48.066;14.124;2023-05-03T05:45:10;97329.63;;;11.66;59.95
49044;BME280;34860;48.066;14.124;2023-05-03T05:47:59;97336.78;;;11.67;60.07
49044;BME280;34860;48.066;14.124;2023-05-03T05:50:48;97334.34;;;11.69;60.03
49044;BME280;34860;48.066;14.124;2023-05-03T05:53:36;97340.25;;;11.71;59.98
49044;BME280;34860;48.066;14.124;2023-05-03T05:56:29;97336.63;;;11.74;59.96
49044;BME280;34860;48.066;14.124;2023-05-03T05:59:21;97328.28;;;11.74;59.98
49044;BME280;34860;48.066;14.124;2023-05-03T06:02:13;97329.84;;;11.75;60.05
49044;BME280;34860;48.066;14.124;2023-05-03T06:05:04;97330.63;;;11.75;60.15
49044;BME280;34860;48.066;14.124;2023-05-03T06:07:53;97340.13;;;11.78;60.12
49044;BME280;34860;48.066;14.124;2023-05-03T06:10:41;97337.34;;;11.78;60.21
49044;BME280;34860;48.066;14.124;2023-05-03T06:13:29;97353.91;;;11.85;60.19
49044;BME280;34860;48.066;14.124;2023-05-03T06:16:25;97342.75;;;11.85;60.22
49044;BME280;34860;48.066;14.124;2023-05-03T06:19:19;97347.47;;;11.88;60.29
49044;BME280;34860;48.066;14.124;2023-05-03T06:22:07;97350.63;;;11.90;59.97
49044;BME280;34860;48.066;14.124;2023-05-03T06:24:56;97348.63;;;11.91;60.21
49044;BME280;34860;48.066;14.124;2023-05-03T06:27:48;97360.16;;;11.93;60.29
49044;BME280;34860;48.066;14.124;2023-05-03T06:30:40;97354.91;;;11.95;60.27
49044;BME280;34860;48.066;14.124;2023-05-03T06:33:33;97354.50;;;11.96;60.35
49044;BME280;34860;48.066;14.124;2023-05-03T06:36:24;97354.06;;;11.98;60.39
49044;BME280;34860;48.066;14.124;2023-05-03T06:39:13;97364.78;;;11.99;60.28
49044;BME280;34860;48.066;14.124;2023-05-03T06:42:06;97367.94;;;12.02;60.42
49044;BME280;34860;48.066;14.124;2023-05-03T06:44:59;97367.84;;;12.05;60.29
49044;BME280;34860;48.066;14.124;2023-05-03T06:47:47;97361.50;;;12.05;60.49
49044;BME280;34860;48.066;14.124;2023-05-03T06:50:37;97363.88;;;12.06;60.55
49044;BME280;34860;48.066;14.124;2023-05-03T06:53:28;97369.00;;;12.08;60.56
49044;BME280;34860;48.066;14.124;2023-05-03T06:56:17;97372.56;;;12.08;60.47
49044;BME280;34860;48.066;14.124;2023-05-03T06:59:05;97374.94;;;12.10;60.53
49044;BME280;34860;48.066;14.124;2023-05-03T07:02:00;97370.47;;;12.12;60.52
49044;BME280;34860;48.066;14.124;2023-05-03T07:04:48;97376.88;;;12.13;60.55
49044;BME280;34860;48.066;14.124;2023-05-03T07:07:43;97366.84;;;12.15;60.63
49044;BME280;34860;48.066;14.124;2023-05-03T07:10:33;97374.34;;;12.18;60.48
49044;BME280;34860;48.066;14.124;2023-05-03T07:13:22;97376.25;;;12.22;60.59
49044;BME280;34860;48.066;14.124;2023-05-03T07:16:10;97374.19;;;12.26;60.51
49044;BME280;34860;48.066;14.124;2023-05-03T07:18:58;97373.34;;;12.29;60.46
49044;BME280;34860;48.066;14.124;2023-05-03T07:21:50;97373.25;;;12.32;60.49
49044;BME280;34860;48.066;14.124;2023-05-03T07:24:40;97361.59;;;12.38;60.36
49044;BME280;34860;48.066;14.124;2023-05-03T07:27:29;97374.25;;;12.42;60.39
49044;BME280;34860;48.066;14.124;2023-05-03T07:30:21;97366.16;;;12.48;60.43
49044;BME280;34860;48.066;14.124;2023-05-03T07:33:09;97366.84;;;12.52;60.51
49044;BME280;34860;48.066;14.124;2023-05-03T07:35:59;97369.50;;;12.59;60.33
49044;BME280;34860;48.066;14.124;2023-05-03T07:38:47;97373.75;;;12.64;59.93
49044;BME280;34860;48.066;14.124;2023-05-03T07:41:45;97375.25;;;12.68;60.33
49044;BME280;34860;48.066;14.124;2023-05-03T07:44:33;97361.56;;;12.74;60.27
49044;BME280;34860;48.066;14.124;2023-05-03T07:47:23;97372.19;;;12.79;60.33
49044;BME280;34860;48.066;14.124;2023-05-03T07:50:12;97364.88;;;12.85;59.91
49044;BME280;34860;48.066;14.124;2023-05-03T07:53:00;97378.31;;;12.90;60.38
49044;BME280;34860;48.066;14.124;2023-05-03T07:55:48;97374.66;;;12.94;60.07
49044;BME280;34860;48.066;14.124;2023-05-03T07:58:37;97374.16;;;12.99;60.24
49044;BME280;34860;48.066;14.124;2023-05-03T08:01:26;97371.25;;;13.02;60.12
49044;BME280;34860;48.066;14.124;2023-05-03T08:04:19;97377.53;;;13.06;60.24
49044;BME280;34860;48.066;14.124;2023-05-03T08:07:07;97378.66;;;13.09;60.25
49044;BME280;34860;48.066;14.124;2023-05-03T08:09:58;97370.63;;;13.11;60.21
49044;BME280;34860;48.066;14.124;2023-05-03T08:12:51;97370.56;;;13.15;60.28
49044;BME280;34860;48.066;14.124;2023-05-03T08:15:41;97370.13;;;13.16;60.18
49044;BME280;34860;48.066;14.124;2023-05-03T08:18:34;97377.59;;;13.19;60.25
49044;BME280;34860;48.066;14.124;2023-05-03T08:21:22;97373.16;;;13.22;60.28
49044;BME280;34860;48.066;14.124;2023-05-03T08:24:14;97376.72;;;13.22;60.13
49044;BME280;34860;48.066;14.124;2023-05-03T08:27:02;97381.44;;;13.25;60.15
49044;BME280;34860;48.066;14.124;2023-05-03T08:29:51;97380.22;;;13.26;60.38
49044;BME280;34860;48.066;14.124;2023-05-03T08:32:40;97379.00;;;13.27;60.30
49044;BME280;34860;48.066;14.124;2023-05-03T08:35:31;97378.56;;;13.29;60.35
49044;BME280;34860;48.066;14.124;2023-05-03T08:38:20;97388.06;;;13.32;60.35
49044;BME280;34860;48.066;14.124;2023-05-03T08:41:16;97382.06;;;13.33;60.31
49044;BME280;34860;48.066;14.124;2023-05-03T08:44:06;97377.63;;;13.36;60.16
49044;BME280;34860;48.066;14.124;2023-05-03T08:46:57;97383.91;;;13.40;60.38
49044;BME280;34860;48.066;14.124;2023-05-03T08:49:52;97382.69;;;13.41;60.20
49044;BME280;34860;48.066;14.124;2023-05-03T08:52:42;97386.19;;;13.45;60.28
49044;BME280;34860;48.066;14.124;2023-05-03T08:55:31;97390.78;;;13.52;60.22
49044;BME280;34860;48.066;14.124;2023-05-03T08:58:19;97383.88;;;13.56;60.28
49044;BME280;34860;48.066;14.124;2023-05-03T09:01:11;97393.31;;;13.62;60.12
49044;BME280;34860;48.066;14.124;2023-05-03T09:04:00;97388.81;;;13.65;60.18
49044;BME280;34860;48.066;14.124;2023-05-03T09:07:06;97390.31;;;13.70;60.15
49044;BME280;34860;48.066;14.124;2023-05-03T09:09:56;97397.38;;;13.74;60.24
49044;BME280;34860;48.066;14.124;2023-05-03T09:12:57;97395.25;;;13.78;60.17
49044;BME280;34860;48.066;14.124;2023-05-03T09:15:52;97396.72;;;13.83;60.02
49044;BME280;34860;48.066;14.124;2023-05-03T09:18:55;97397.41;;;13.87;60.03
49044;BME280;34860;48.066;14.124;2023-05-03T09:21:45;97405.69;;;13.91;60.05
49044;BME280;34860;48.066;14.124;2023-05-03T09:24:37;97406.06;;;13.93;60.16
49044;BME280;34860;48.066;14.124;2023-05-03T09:27:30;97409.97;;;13.95;60.27
49044;BME280;34860;48.066;14.124;2023-05-03T09:30:22;97404.72;;;13.97;60.19
49044;BME280;34860;48.066;14.124;2023-05-03T09:33:10;97408.31;;;13.98;60.11
49044;BME280;34860;48.066;14.124;2023-05-03T09:35:59;97405.06;;;13.99;60.04
49044;BME280;34860;48.066;14.124;2023-05-03T09:38:48;97401.47;;;13.99;60.11
49044;BME280;34860;48.066;14.124;2023-05-03T09:41:38;97403.50;;;13.98;60.17
49044;BME280;34860;48.066;14.124;2023-05-03T09:44:39;97406.72;;;13.97;60.37
49044;BME280;34860;48.066;14.124;2023-05-03T09:47:28;97400.81;;;13.95;60.16
49044;BME280;34860;48.066;14.124;2023-05-03T09:50:20;97409.63;;;13.93;60.35
49044;BME280;34860;48.066;14.124;2023-05-03T09:53:08;97400.91;;;13.91;60.32
49044;BME280;34860;48.066;14.124;2023-05-03T09:55:58;97399.34;;;13.90;60.43
49044;BME280;34860;48.066;14.124;2023-05-03T09:58:50;97403.34;;;13.89;60.27
49044;BME280;34860;48.066;14.124;2023-05-03T10:01:43;97395.06;;;13.86;60.45
49044;BME280;34860;48.066;14.124;2023-05-03T10:04:38;97393.16;;;13.83;60.30
49044;BME280;34860;48.066;14.124;2023-05-03T10:07:27;97395.59;;;13.80;60.60
49044;BME280;34860;48.066;14.124;2023-05-03T10:10:20;97392.44;;;13.78;60.45
49044;BME280;34860;48.066;14.124;2023-05-03T10:13:08;97396.94;;;13.76;60.44
49044;BME280;34860;48.066;14.124;2023-05-03T10:16:03;97391.78;;;13.74;60.50
49044;BME280;34860;48.066;14.124;2023-05-03T10:18:58;97387.06;;;13.71;60.45
49044;BME280;34860;48.066;14.124;2023-05-03T10:21:54;97387.50;;;13.70;60.38
49044;BME280;34860;48.066;14.124;2023-05-03T10:25:06;97382.81;;;13.67;60.49
49044;BME280;34860;48.066;14.124;2023-05-03T10:28:00;97380.44;;;13.65;60.53
49044;BME280;34860;48.066;14.124;2023-05-03T10:30:49;97390.41;;;13.66;60.72
49044;BME280;34860;48.066;14.124;2023-05-03T10:33:38;97379.69;;;13.65;60.51
49044;BME280;34860;48.066;14.124;2023-05-03T10:36:28;97381.22;;;13.66;60.31
49044;BME280;34860;48.066;14.124;2023-05-03T10:39:24;97379.25;;;13.66;60.32
49044;BME280;34860;48.066;14.124;2023-05-03T10:42:14;97371.63;;;13.67;60.31
49044;BME280;34860;48.066;14.124;2023-05-03T10:45:07;97370.75;;;13.70;60.31
49044;BME280;34860;48.066;14.124;2023-05-03T10:48:17;97369.44;;;13.74;60.27
49044;BME280;34860;48.066;14.124;2023-05-03T10:51:33;97372.00;;;13.81;60.21
49044;BME280;34860;48.066;14.124;2023-05-03T10:54:30;97368.69;;;13.87;60.14
49044;BME280;34860;48.066;14.124;2023-05-03T10:57:18;97376.44;;;13.95;59.97
49044;BME280;34860;48.066;14.124;2023-05-03T11:00:11;97366.97;;;14.06;59.89
49044;BME280;34860;48.066;14.124;2023-05-03T11:03:12;97367.88;;;14.15;59.97
49044;BME280;34860;48.066;14.124;2023-05-03T11:06:04;97365.56;;;14.27;59.78
49044;BME280;34860;48.066;14.124;2023-05-03T11:08:54;97362.53;;;14.34;59.96
49044;BME280;34860;48.066;14.124;2023-05-03T11:11:42;97361.88;;;14.43;59.79
49044;BME280;34860;48.066;14.124;2023-05-03T11:14:31;97359.66;;;14.50;59.71
49044;BME280;34860;48.066;14.124;2023-05-03T11:17:21;97375.00;;;14.59;59.67
49044;BME280;34860;48.066;14.124;2023-05-03T11:20:14;97369.19;;;14.66;59.68
49044;BME280;34860;48.066;14.124;2023-05-03T11:23:03;97363.06;;;14.71;59.60
49044;BME280;34860;48.066;14.124;2023-05-03T11:25:52;97370.00;;;14.79;59.75
49044;BME280;34860;48.066;14.124;2023-05-03T11:28:42;97367.41;;;14.85;59.63
49044;BME280;34860;48.066;14.124;2023-05-03T11:31:31;97362.81;;;14.91;59.51
49044;BME280;34860;48.066;14.124;2023-05-03T11:34:21;97362.16;;;15.00;59.58
49044;BME280;34860;48.066;14.124;2023-05-03T11:37:09;97361.78;;;15.11;59.55
49044;BME280;34860;48.066;14.124;2023-05-03T11:40:00;97356.13;;;15.23;59.51
49044;BME280;34860;48.066;14.124;2023-05-03T11:42:52;97346.81;;;15.39;59.25
49044;BME280;34860;48.066;14.124;2023-05-03T11:45:45;97355.84;;;15.56;59.32
49044;BME280;34860;48.066;14.124;2023-05-03T11:48:34;97352.78;;;15.76;59.19
49044;BME280;34860;48.066;14.124;2023-05-03T11:51:24;97345.13;;;15.99;59.02
49044;BME280;34860;48.066;14.124;2023-05-03T11:54:16;97354.16;;;16.25;59.11
49044;BME280;34860;48.066;14.124;2023-05-03T11:57:11;97348.56;;;16.57;58.88
49044;BME280;34860;48.066;14.124;2023-05-03T12:00:13;97342.63;;;16.86;58.92
49044;BME280;34860;48.066;14.124;2023-05-03T12:03:03;97345.84;;;17.16;58.76
49044;BME280;34860;48.066;14.124;2023-05-03T12:05:55;97349.31;;;17.48;58.76
49044;BME280;34860;48.066;14.124;2023-05-03T12:08:44;97344.34;;;17.79;58.50
49044;BME280;34860;48.066;14.124;2023-05-03T12:11:39;97334.94;;;18.10;58.46
49044;BME280;34860;48.066;14.124;2023-05-03T12:14:55;97334.41;;;18.40;58.33
49044;BME280;34860;48.066;14.124;2023-05-03T12:17:54;97332.75;;;18.66;58.26
49044;BME280;34860;48.066;14.124;2023-05-03T12:20:54;97332.19;;;18.96;58.20
49044;BME280;34860;48.066;14.124;2023-05-03T12:24:05;97334.97;;;19.29;58.18
49044;BME280;34860;48.066;14.124;2023-05-03T12:26:53;97327.06;;;19.57;58.32
49044;BME280;34860;48.066;14.124;2023-05-03T12:29:42;97336.31;;;19.82;58.06
49044;BME280;34860;48.066;14.124;2023-05-03T12:32:32;97325.63;;;20.01;58.10
49044;BME280;34860;48.066;14.124;2023-05-03T12:35:22;97327.09;;;20.11;58.11
49044;BME280;34860;48.066;14.124;2023-05-03T12:38:13;97328.94;;;20.14;58.11
49044;BME280;34860;48.066;14.124;2023-05-03T12:41:04;97331.75;;;20.14;58.50
49044;BME280;34860;48.066;14.124;2023-05-03T12:43:54;97326.53;;;20.07;58.31
49044;BME280;34860;48.066;14.124;2023-05-03T12:46:44;97322.50;;;19.99;58.33
49044;BME280;34860;48.066;14.124;2023-05-03T12:49:33;97321.31;;;19.91;58.64
49044;BME280;34860;48.066;14.124;2023-05-03T12:52:25;97311.13;;;19.78;58.80
49044;BME280;34860;48.066;14.124;2023-05-03T12:55:16;97307.25;;;19.67;58.80
49044;BME280;34860;48.066;14.124;2023-05-03T12:58:04;97315.50;;;19.55;58.70
49044;BME280;34860;48.066;14.124;2023-05-03T13:00:59;97310.59;;;19.41;59.01
49044;BME280;34860;48.066;14.124;2023-05-03T13:04:10;97316.97;;;19.27;58.88
49044;BME280;34860;48.066;14.124;2023-05-03T13:07:01;97301.25;;;19.11;59.02
49044;BME280;34860;48.066;14.124;2023-05-03T13:09:58;97298.19;;;18.99;58.94
49044;BME280;34860;48.066;14.124;2023-05-03T13:12:48;97294.47;;;18.93;59.17
49044;BME280;34860;48.066;14.124;2023-05-03T13:15:39;97296.75;;;19.04;59.07
49044;BME280;34860;48.066;14.124;2023-05-03T13:18:28;97291.31;;;19.24;58.98
49044;BME280;34860;48.066;14.124;2023-05-03T13:21:21;97288.47;;;19.49;58.73
49044;BME280;34860;48.066;14.124;2023-05-03T13:24:09;97285.09;;;19.74;58.46
49044;BME280;34860;48.066;14.124;2023-05-03T13:26:59;97280.88;;;19.94;58.26
49044;BME280;34860;48.066;14.124;2023-05-03T13:29:48;97282.16;;;20.08;58.30
49044;BME280;34860;48.066;14.124;2023-05-03T13:32:36;97274.56;;;20.14;58.17
49044;BME280;34860;48.066;14.124;2023-05-03T13:35:24;97274.84;;;20.16;58.23
49044;BME280;34860;48.066;14.124;2023-05-03T13:38:12;97271.72;;;20.14;58.11
49044;BME280;34860;48.066;14.124;2023-05-03T13:41:05;97268.03;;;20.08;58.19
49044;BME280;34860;48.066;14.124;2023-05-03T13:43:55;97275.63;;;20.02;58.25
49044;BME280;34860;48.066;14.124;2023-05-03T13:46:45;97260.63;;;19.95;58.24
49044;BME280;34860;48.066;14.124;2023-05-03T13:49:34;97264.91;;;19.91;58.36
49044;BME280;34860;48.066;14.124;2023-05-03T13:52:23;97264.44;;;19.92;58.32
49044;BME280;34860;48.066;14.124;2023-05-03T13:55:15;97261.72;;;19.98;58.00
49044;BME280;34860;48.066;14.124;2023-05-03T13:58:03;97253.31;;;20.04;58.12
49044;BME280;34860;48.066;14.124;2023-05-03T14:00:54;97255.09;;;20.16;58.09
49044;BME280;34860;48.066;14.124;2023-05-03T14:03:42;97256.91;;;20.34;58.16
49044;BME280;34860;48.066;14.124;2023-05-03T14:06:31;97256.47;;;20.56;57.96
49044;BME280;34860;48.066;14.124;2023-05-03T14:09:20;97259.97;;;20.81;57.91
49044;BME280;34860;48.066;14.124;2023-05-03T14:12:10;97258.50;;;21.06;57.70
49044;BME280;34860;48.066;14.124;2023-05-03T14:15:03;97264.28;;;21.38;57.52
49044;BME280;34860;48.066;14.124;2023-05-03T14:17:52;97242.78;;;21.67;57.20
49044;BME280;34860;48.066;14.124;2023-05-03T14:20:42;97262.09;;;21.94;57.15
49044;BME280;34860;48.066;14.124;2023-05-03T14:23:30;97258.19;;;22.18;57.30
49044;BME280;34860;48.066;14.124;2023-05-03T14:26:19;97259.56;;;22.28;57.16
49044;BME280;34860;48.066;14.124;2023-05-03T14:29:08;97267.56;;;22.30;57.16
49044;BME280;34860;48.066;14.124;2023-05-03T14:32:00;97261.56;;;22.22;57.23
49044;BME280;34860;48.066;14.124;2023-05-03T14:34:54;97260.44;;;22.08;57.36
49044;BME280;34860;48.066;14.124;2023-05-03T14:37:42;97262.53;;;21.87;57.47
49044;BME280;34860;48.066;14.124;2023-05-03T14:40:31;97268.44;;;21.63;57.70
49044;BME280;34860;48.066;14.124;2023-05-03T14:43:20;97275.09;;;21.39;57.85
49044;BME280;34860;48.066;14.124;2023-05-03T14:46:08;97268.88;;;21.15;58.04
49044;BME280;34860;48.066;14.124;2023-05-03T14:49:00;97275.22;;;20.89;58.12
49044;BME280;34860;48.066;14.124;2023-05-03T14:51:51;97258.13;;;20.63;58.25
49044;BME280;34860;48.066;14.124;2023-05-03T14:54:39;97271.13;;;20.40;58.32